createdAt,value
2023-01-22T00:00:02.870Z,100
2023-01-22T00:05:02.490Z,100
2023-01-22T00:10:02.906Z,100
2023-01-22T00:15:03.113Z,100
2023-01-22T00:20:02.894Z,100
2023-01-22T00:25:03.201Z,100
2023-01-22T00:30:03.125Z,100
2023-01-22T00:35:02.658Z,100
2023-01-22T00:40:02.875Z,100
2023-01-22T00:45:02.810Z,100
2023-01-22T00:50:02.781Z,100
2023-01-22T00:55:03.680Z,100
2023-01-22T01:00:03.295Z,100
2023-01-22T01:05:02.901Z,100
2023-01-22T01:10:02.609Z,100
2023-01-22T01:15:03.323Z,100
2023-01-22T01:20:03.509Z,100
2023-01-22T01:25:02.929Z,100
2023-01-22T01:30:03.171Z,100
2023-01-22T01:35:02.890Z,100
2023-01-22T01:40:02.648Z,100
2023-01-22T01:45:03.445Z,100
2023-01-22T01:50:03.111Z,100
2023-01-22T01:55:03.551Z,100
2023-01-22T02:00:02.828Z,100
2023-01-22T02:05:02.648Z,100
2023-01-22T02:10:02.618Z,100
2023-01-22T02:15:03.155Z,100
2023-01-22T02:20:02.745Z,100
2023-01-22T02:25:03.127Z,100
2023-01-22T02:30:02.875Z,100
2023-01-22T02:35:02.501Z,100
2023-01-22T02:40:03.321Z,100
2023-01-22T02:45:03.466Z,100
2023-01-22T02:50:03.332Z,100
2023-01-22T02:55:03.399Z,100
2023-01-22T03:00:02.863Z,100
2023-01-22T03:05:02.583Z,100
2023-01-22T03:10:03.359Z,100
2023-01-22T03:15:03.228Z,100
2023-01-22T03:20:02.948Z,100
2023-01-22T03:25:02.952Z,100
2023-01-22T03:30:02.744Z,100
2023-01-22T03:35:03.443Z,100
2023-01-22T03:40:02.585Z,100
2023-01-22T03:45:03.294Z,100
2023-01-22T03:50:03.411Z,100
2023-01-22T03:55:03.261Z,100
2023-01-22T04:00:02.743Z,100
2023-01-22T04:05:02.578Z,100
2023-01-22T04:10:03.280Z,100
2023-01-22T04:15:03.284Z,100
2023-01-22T04:20:03.030Z,100
2023-01-22T04:25:02.759Z,100
2023-01-22T04:30:02.563Z,100
2023-01-22T04:35:02.646Z,100
2023-01-22T04:40:03.555Z,100
2023-01-22T04:45:03.143Z,100
2023-01-22T04:50:03.438Z,100
2023-01-22T04:55:03.715Z,100
2023-01-22T05:00:02.882Z,100
2023-01-22T05:05:03.466Z,100
2023-01-22T05:10:03.244Z,100
2023-01-22T05:15:24.292Z,100
2023-01-22T05:20:03.034Z,100
2023-01-22T05:25:02.864Z,100
2023-01-22T05:30:03.079Z,100
2023-01-22T05:35:02.759Z,100
2023-01-22T05:40:02.904Z,100
2023-01-22T05:45:03.303Z,100
2023-01-22T05:50:03.153Z,100
2023-01-22T05:55:03.502Z,100
2023-01-22T06:00:02.607Z,100
2023-01-22T06:05:03.392Z,100
2023-01-22T06:10:02.794Z,100
2023-01-22T06:15:02.793Z,100
2023-01-22T06:20:02.603Z,100
2023-01-22T06:25:03.413Z,100
2023-01-22T06:30:03.383Z,100
2023-01-22T06:35:02.980Z,100
2023-01-22T06:40:02.827Z,100
2023-01-22T06:45:03.026Z,100
2023-01-22T06:50:02.770Z,100
2023-01-22T06:55:02.819Z,100
2023-01-22T07:00:03.307Z,100
2023-01-22T07:05:03.063Z,100
2023-01-22T07:10:02.815Z,100
2023-01-22T07:15:03.210Z,100
2023-01-22T07:20:02.775Z,100
2023-01-22T07:25:02.675Z,100
2023-01-22T07:30:03.404Z,100
2023-01-22T07:35:03.229Z,100
2023-01-22T07:40:03.024Z,100
2023-01-22T07:45:02.699Z,100
2023-01-22T07:50:02.619Z,100
2023-01-22T07:55:03.395Z,100
2023-01-22T08:00:03.410Z,100
2023-01-22T08:05:03.167Z,100
2023-01-22T08:10:02.770Z,100
2023-01-22T08:15:02.705Z,100
2023-01-22T08:20:03.484Z,100
2023-01-22T08:25:03.164Z,100
2023-01-22T08:30:03.099Z,100
2023-01-22T08:35:02.828Z,100
2023-01-22T08:40:02.541Z,100
2023-01-22T08:45:03.321Z,100
2023-01-22T08:50:03.005Z,100
2023-01-22T08:55:03.222Z,100
2023-01-22T09:00:03.031Z,100
2023-01-22T09:05:02.677Z,100
2023-01-22T09:10:02.623Z,100
2023-01-22T09:15:03.695Z,100
2023-01-22T09:20:02.764Z,100
2023-01-22T09:25:02.500Z,100
2023-01-22T09:30:03.308Z,100
2023-01-22T09:35:03.131Z,100
2023-01-22T09:40:02.979Z,100
2023-01-22T09:45:02.714Z,100
2023-01-22T09:50:03.442Z,100
2023-01-22T09:55:03.773Z,100
2023-01-22T10:00:03.254Z,100
2023-01-22T10:05:03.009Z,99.67
2023-01-22T10:10:02.927Z,99.89
2023-01-22T10:15:02.685Z,99.87
2023-01-22T10:20:03.460Z,99.79
2023-01-22T10:25:03.202Z,99.81
2023-01-22T10:30:02.934Z,99.62
2023-01-22T10:35:02.580Z,99.87
2023-01-22T10:40:03.380Z,99.56
2023-01-22T10:45:03.286Z,99.59
2023-01-22T10:50:05.189Z,99.54
2023-01-22T10:55:03.795Z,99.98
2023-01-22T11:00:03.540Z,99.97
2023-01-22T11:05:03.296Z,99.55
2023-01-22T11:10:03.308Z,99.53
2023-01-22T11:15:03.430Z,99.75
2023-01-22T11:20:03.047Z,99.62
2023-01-22T11:25:02.762Z,99.78
2023-01-22T11:30:02.663Z,99.55
2023-01-22T11:35:02.492Z,99.53
2023-01-22T11:40:03.331Z,99.37
2023-01-22T11:45:03.193Z,99.42
2023-01-22T11:50:03.202Z,99.28
2023-01-22T11:55:03.418Z,99.76
2023-01-22T12:00:03.014Z,99.6
2023-01-22T12:05:03.472Z,99.24
2023-01-22T12:10:03.256Z,98.92
2023-01-22T12:15:03.003Z,99.71
2023-01-22T12:20:02.946Z,99.68
2023-01-22T12:25:03.390Z,99.52
2023-01-22T12:30:03.189Z,99.66
2023-01-22T12:35:02.880Z,99.67
2023-01-22T12:40:02.708Z,99.64
2023-01-22T12:45:03.495Z,99.27
2023-01-22T12:50:04.624Z,99.89
2023-01-22T12:55:03.946Z,99.9
2023-01-22T13:00:02.763Z,99.58
2023-01-22T13:05:02.684Z,99.47
2023-01-22T13:10:02.716Z,99.93
2023-01-22T13:15:03.601Z,100
2023-01-22T13:20:03.193Z,100
2023-01-22T13:25:02.907Z,100
2023-01-22T13:30:02.699Z,100
2023-01-22T13:35:03.340Z,100
2023-01-22T13:40:03.551Z,100
2023-01-22T13:45:03.182Z,100
2023-01-22T13:50:02.855Z,100
2023-01-22T13:55:03.441Z,100
2023-01-22T14:05:03.425Z,100
2023-01-22T14:10:03.411Z,100
2023-01-22T14:15:02.882Z,100
2023-01-22T14:20:03.218Z,100
2023-01-22T14:25:03.190Z,100
2023-01-22T14:30:03.114Z,100
2023-01-22T14:35:02.820Z,100
2023-01-22T14:40:02.984Z,100
2023-01-22T14:45:02.850Z,100
2023-01-22T14:50:02.587Z,100
2023-01-22T14:55:03.400Z,100
2023-01-22T15:00:03.063Z,100
2023-01-22T15:05:02.726Z,100
2023-01-22T15:10:02.655Z,100
2023-01-22T15:15:03.234Z,100
2023-01-22T15:20:02.790Z,100
2023-01-22T15:25:02.519Z,100
2023-01-22T15:30:03.311Z,100
2023-01-22T15:35:02.505Z,100
2023-01-22T15:40:03.221Z,100
2023-01-22T15:45:02.956Z,100
2023-01-22T15:50:02.756Z,100
2023-01-22T15:55:03.954Z,100
2023-01-22T16:00:03.225Z,100
2023-01-22T16:05:03.222Z,100
2023-01-22T16:10:02.983Z,100
2023-01-22T16:15:03.322Z,100
2023-01-22T16:20:03.455Z,100
2023-01-22T16:25:02.928Z,100
2023-01-22T16:30:02.852Z,100
2023-01-22T16:35:02.868Z,100
2023-01-22T16:40:03.318Z,100
2023-01-22T16:45:03.108Z,100
2023-01-22T16:50:03.709Z,100
2023-01-22T16:55:02.615Z,100
2023-01-22T17:00:03.754Z,100
2023-01-22T17:05:03.195Z,100
2023-01-22T17:10:02.910Z,100
2023-01-22T17:15:04.727Z,100
2023-01-22T17:20:03.359Z,100
2023-01-22T17:25:02.992Z,100
2023-01-22T17:30:03.170Z,100
2023-01-22T17:35:02.925Z,100
2023-01-22T17:40:02.755Z,100
2023-01-22T17:45:03.540Z,100
2023-01-22T17:50:03.189Z,100
2023-01-22T17:55:03.137Z,100
2023-01-22T18:00:03.086Z,100
2023-01-22T18:05:02.866Z,100
2023-01-22T18:10:02.866Z,100
2023-01-22T18:15:03.454Z,100
2023-01-22T18:20:03.497Z,100
2023-01-22T18:25:03.310Z,100
2023-01-22T18:30:03.028Z,100
2023-01-22T18:35:02.684Z,100
2023-01-22T18:40:02.999Z,100
2023-01-22T18:45:02.912Z,100
2023-01-22T18:50:02.518Z,100
2023-01-22T18:55:03.985Z,100
2023-01-22T19:00:03.069Z,100
2023-01-22T19:05:02.661Z,100
2023-01-22T19:10:03.402Z,100
2023-01-22T19:15:03.239Z,100
2023-01-22T19:20:03.022Z,100
2023-01-22T19:25:02.815Z,100
2023-01-22T19:30:02.724Z,100
2023-01-22T19:35:03.427Z,100
2023-01-22T19:40:03.028Z,100
2023-01-22T19:45:02.965Z,100
2023-01-22T19:50:02.659Z,100
2023-01-22T19:55:03.887Z,100
2023-01-22T20:00:03.375Z,100
2023-01-22T20:05:03.383Z,100
2023-01-22T20:10:03.285Z,100
2023-01-22T20:15:03.040Z,100
2023-01-22T20:20:02.725Z,100
2023-01-22T20:25:03.417Z,100
2023-01-22T20:30:03.191Z,100
2023-01-22T20:35:03.796Z,100
2023-01-22T20:40:03.570Z,100
2023-01-22T20:45:03.159Z,100
2023-01-22T20:50:02.737Z,100
2023-01-22T20:55:03.089Z,100
2023-01-22T21:00:07.598Z,100
2023-01-22T21:05:03.288Z,100
2023-01-22T21:10:03.015Z,100
2023-01-22T21:15:02.775Z,100
2023-01-22T21:20:03.547Z,100
2023-01-22T21:25:03.369Z,100
2023-01-22T21:30:02.949Z,100
2023-01-22T21:35:02.700Z,100
2023-01-22T21:40:03.439Z,100
2023-01-22T21:45:03.163Z,100
2023-01-22T21:50:03.216Z,100
2023-01-22T21:55:03.075Z,100
2023-01-22T22:00:02.394Z,100
2023-01-22T22:05:03.422Z,100
2023-01-22T22:10:03.566Z,100
2023-01-22T22:15:03.184Z,100
2023-01-22T22:20:03.096Z,100
2023-01-22T22:25:02.838Z,100
2023-01-22T22:30:02.667Z,100
2023-01-22T22:35:03.306Z,100
2023-01-22T22:40:03.081Z,100
2023-01-22T22:45:03.002Z,100
2023-01-22T22:50:02.648Z,100
2023-01-22T22:55:03.979Z,100
2023-01-22T23:00:03.287Z,100
2023-01-22T23:05:03.146Z,100
2023-01-22T23:10:02.761Z,100
2023-01-22T23:15:03.623Z,100
2023-01-22T23:20:03.440Z,100
2023-01-22T23:25:03.153Z,100
2023-01-22T23:30:03.017Z,100
2023-01-22T23:35:02.760Z,100
2023-01-22T23:40:02.585Z,100
2023-01-22T23:45:03.329Z,100
2023-01-22T23:50:03.794Z,100
2023-01-22T23:55:03.252Z,100
